createdAt,value
2023-01-05T00:00:28.213Z,1.80
2023-01-05T00:05:30.465Z,1.50
2023-01-05T00:10:51.504Z,1.60
2023-01-05T00:16:12.347Z,1.55
2023-01-05T00:21:34.101Z,1.15
2023-01-05T00:26:36.226Z,1.58
2023-01-05T00:31:38.635Z,1.10
2023-01-05T00:36:41.233Z,1.00
2023-01-05T00:41:43.446Z,1.33
2023-01-05T00:46:45.582Z,1.10
2023-01-05T00:51:47.762Z,1.17
2023-01-05T00:56:49.887Z,0.90
2023-01-05T01:01:54.630Z,1.33
2023-01-05T01:06:57.103Z,1.20
2023-01-05T01:11:59.416Z,0.80
2023-01-05T01:17:01.661Z,1.10
2023-01-05T01:22:04.011Z,1.10
2023-01-05T01:27:06.245Z,1.10
2023-01-05T01:32:08.493Z,1.00
2023-01-05T01:37:10.853Z,1.15
2023-01-05T01:42:18.375Z,0.70
2023-01-05T01:47:54.102Z,1.23
2023-01-05T01:53:10.265Z,0.95
2023-01-05T01:58:16.590Z,1.42
2023-01-05T02:03:19.539Z,2.22
2023-01-05T02:08:31.300Z,2.25
2023-01-05T02:13:55.295Z,2.30
2023-01-05T02:19:17.792Z,1.63
2023-01-05T02:24:44.173Z,1.50
2023-01-05T02:29:57.283Z,1.58
2023-01-05T02:35:11.068Z,1.02
2023-01-05T02:40:24.915Z,1.40
2023-01-05T02:45:28.259Z,1.42
2023-01-05T02:50:53.096Z,1.20
2023-01-05T02:56:00.956Z,1.10
2023-01-05T03:01:23.497Z,1.50
2023-01-05T03:06:47.075Z,1.27
2023-01-05T03:12:15.618Z,1.95
2023-01-05T03:17:26.748Z,1.67
2023-01-05T03:22:50.794Z,1.60
2023-01-05T03:28:13.384Z,1.70
2023-01-05T03:33:56.046Z,2.00
2023-01-05T03:39:01.556Z,2.22
2023-01-05T03:44:06.510Z,2.38
2023-01-05T03:49:13.001Z,2.30
2023-01-05T03:54:15.362Z,2.17
2023-01-05T03:59:19.487Z,2.15
2023-01-05T04:09:26.551Z,1.50
2023-01-05T04:14:28.883Z,1.80
2023-01-05T04:19:31.695Z,1.58
2023-01-05T04:24:33.961Z,2.15
2023-01-05T04:29:38.567Z,2.38
2023-01-05T04:34:41.044Z,2.55
2023-01-05T04:39:43.861Z,2.47
2023-01-05T04:44:47.704Z,1.73
2023-01-05T04:49:50.046Z,2.55
2023-01-05T04:54:53.018Z,2.40
2023-01-05T04:59:55.312Z,2.30
2023-01-05T05:05:00.281Z,2.28
2023-01-05T05:10:02.800Z,2.85
2023-01-05T05:15:06.008Z,2.47
2023-01-05T05:20:09.018Z,2.60
2023-01-05T05:25:12.071Z,2.70
2023-01-05T05:30:18.527Z,2.33
2023-01-05T05:35:20.687Z,2.72
2023-01-05T05:40:22.935Z,2.83
2023-01-05T05:45:25.124Z,2.60
2023-01-05T05:50:27.981Z,3.25
2023-01-05T05:55:30.179Z,3.10
2023-01-05T06:00:32.441Z,3.30
2023-01-05T06:05:34.627Z,2.60
2023-01-05T06:10:36.711Z,2.50
2023-01-05T06:15:38.918Z,2.17
2023-01-05T06:20:41.804Z,2.63
2023-01-05T06:25:44.875Z,2.90
2023-01-05T06:30:47.609Z,2.58
2023-01-05T06:35:49.747Z,2.85
2023-01-05T06:40:52.542Z,2.85
2023-01-05T06:45:54.846Z,2.47
2023-01-05T06:50:57.115Z,3.10
2023-01-05T06:55:59.382Z,2.30
2023-01-05T07:01:01.557Z,2.55
2023-01-05T07:06:05.956Z,2.83
2023-01-05T07:16:11.954Z,2.47
2023-01-05T07:21:14.130Z,2.42
2023-01-05T07:26:16.302Z,2.47
2023-01-05T07:31:18.446Z,1.92
2023-01-05T07:36:20.651Z,2.10
2023-01-05T07:41:22.820Z,2.22
2023-01-05T07:46:25.076Z,3.03
2023-01-05T07:51:27.467Z,2.42
2023-01-05T07:56:29.707Z,1.98
2023-01-05T08:01:31.819Z,2.42
2023-01-05T08:06:34.557Z,2.38
2023-01-05T08:11:36.683Z,2.40
2023-01-05T08:16:38.905Z,2.40
2023-01-05T08:21:41.054Z,2.80
2023-01-05T08:26:43.272Z,2.67
2023-01-05T08:31:45.519Z,2.53
2023-01-05T08:36:47.751Z,1.85
2023-01-05T08:41:49.882Z,2.20
2023-01-05T08:46:52.113Z,2.03
2023-01-05T08:51:54.390Z,2.42
2023-01-05T08:56:57.257Z,1.85
2023-01-05T09:01:59.744Z,2.30
2023-01-05T09:07:01.992Z,2.15
2023-01-05T09:12:04.447Z,1.83
2023-01-05T09:17:07.659Z,1.98
2023-01-05T09:22:10.794Z,2.70
2023-01-05T09:27:12.898Z,2.47
2023-01-05T09:32:15.101Z,1.73
2023-01-05T09:37:17.266Z,1.98
2023-01-05T09:42:23.534Z,2.42
2023-01-05T09:47:36.937Z,1.70
2023-01-05T09:52:39.459Z,1.90
2023-01-05T09:57:42.430Z,1.88
2023-01-05T10:02:56.130Z,1.88
2023-01-05T10:08:10.999Z,1.88
2023-01-05T10:13:33.403Z,2.45
2023-01-05T10:18:37.652Z,2.03
2023-01-05T10:23:59.989Z,2.30
2023-01-05T10:29:14.396Z,2.05
2023-01-05T10:34:35.051Z,2.38
2023-01-05T10:39:56.765Z,1.92
2023-01-05T10:45:03.381Z,1.73
2023-01-05T10:50:45.114Z,1.40
2023-01-05T10:56:05.646Z,2.30
2023-01-05T11:01:27.667Z,2.17
2023-01-05T11:06:33.589Z,1.88
2023-01-05T11:16:38.728Z,1.98
2023-01-05T11:21:45.659Z,1.40
2023-01-05T11:26:50.075Z,1.27
2023-01-05T11:32:06.969Z,1.25
2023-01-05T11:37:11.801Z,1.15
2023-01-05T11:42:25.381Z,1.20
2023-01-05T11:47:44.519Z,1.08
2023-01-05T11:52:55.085Z,1.00
2023-01-05T11:58:17.952Z,1.00
2023-01-05T12:03:25.985Z,1.00
2023-01-05T12:08:38.169Z,1.00
2023-01-05T12:13:50.038Z,0.98
2023-01-05T12:19:22.907Z,1.05
2023-01-05T12:24:48.902Z,1.00
2023-01-05T12:36:00.234Z,0.93
2023-01-05T12:41:35.830Z,1.10
2023-01-05T12:46:59.470Z,0.97
2023-01-05T12:52:20.114Z,1.10
2023-01-05T12:57:38.032Z,1.02
2023-01-05T13:02:55.898Z,0.77
2023-01-05T13:08:24.384Z,0.70
2023-01-05T13:13:32.234Z,0.60
2023-01-05T13:18:38.281Z,0.93
2023-01-05T13:23:51.727Z,1.00
2023-01-05T13:28:57.774Z,0.98
2023-01-05T13:34:18.690Z,0.65
2023-01-05T13:39:48.020Z,0.73
2023-01-05T13:45:01.874Z,0.73
2023-01-05T13:50:44.808Z,0.57
2023-01-05T13:55:56.024Z,1.15
2023-01-05T14:00:58.389Z,0.90
2023-01-05T14:06:04.263Z,0.70
2023-01-05T14:16:34.655Z,0.75
2023-01-05T14:21:48.919Z,0.90
2023-01-05T14:27:03.332Z,0.60
2023-01-05T14:32:07.517Z,0.95
2023-01-05T14:37:25.055Z,0.93
2023-01-05T14:42:37.041Z,0.52
2023-01-05T14:47:48.786Z,0.90
2023-01-05T14:52:58.695Z,0.65
2023-01-05T14:58:03.561Z,0.52
2023-01-05T15:03:21.008Z,0.83
2023-01-05T15:08:49.657Z,0.80
2023-01-05T15:14:41.736Z,0.80
2023-01-05T15:19:52.449Z,0.82
2023-01-05T15:25:26.340Z,0.60
2023-01-05T15:30:56.166Z,0.85
2023-01-05T15:36:03.504Z,0.70
2023-01-05T15:41:10.679Z,0.82
2023-01-05T15:46:22.596Z,0.63
2023-01-05T15:51:27.991Z,0.75
2023-01-05T15:56:31.616Z,1.10
2023-01-05T16:01:38.360Z,1.08
2023-01-05T16:06:41.064Z,0.70
2023-01-05T16:11:45.843Z,1.00
2023-01-05T16:17:12.100Z,1.25
2023-01-05T16:27:29.641Z,0.82
2023-01-05T16:32:37.314Z,1.33
2023-01-05T16:37:39.502Z,0.90
2023-01-05T16:42:48.597Z,1.10
2023-01-05T16:47:52.501Z,0.98
2023-01-05T16:52:59.461Z,1.10
2023-01-05T16:58:03.314Z,1.20
2023-01-05T17:03:37.791Z,1.70
2023-01-05T17:08:39.924Z,1.20
2023-01-05T17:13:53.903Z,2.03
2023-01-05T17:18:55.994Z,1.95
2023-01-05T17:24:00.256Z,1.35
2023-01-05T17:34:10.832Z,1.40
2023-01-05T17:39:16.126Z,1.10
2023-01-05T17:44:18.650Z,1.20
2023-01-05T17:49:21.437Z,1.30
2023-01-05T17:54:23.527Z,1.38
2023-01-05T17:59:27.879Z,1.35
2023-01-05T18:09:38.064Z,1.17
2023-01-05T18:14:40.243Z,1.08
2023-01-05T18:24:50.693Z,1.40
2023-01-05T18:29:53.625Z,1.33
2023-01-05T18:34:55.740Z,1.05
2023-01-05T18:39:57.839Z,0.98
2023-01-05T18:45:04.978Z,1.55
2023-01-05T18:50:16.615Z,1.08
2023-01-05T18:55:18.808Z,1.45
2023-01-05T19:00:20.945Z,1.30
2023-01-05T19:05:23.215Z,1.30
2023-01-05T19:10:25.362Z,1.70
2023-01-05T19:15:27.448Z,1.20
2023-01-05T19:20:29.640Z,1.30
2023-01-05T19:25:31.708Z,1.45
2023-01-05T19:30:33.819Z,1.40
2023-01-05T19:35:36.145Z,1.00
2023-01-05T19:40:38.303Z,1.73
2023-01-05T19:45:40.389Z,0.95
2023-01-05T19:50:42.438Z,1.00
2023-01-05T19:55:44.576Z,1.10
2023-01-05T20:00:46.908Z,1.20
2023-01-05T20:05:49.018Z,1.25
2023-01-05T20:10:51.038Z,1.40
2023-01-05T20:15:53.123Z,1.40
2023-01-05T20:20:55.238Z,1.02
2023-01-05T20:26:08.405Z,1.10
2023-01-05T20:31:33.348Z,1.48
2023-01-05T20:36:35.976Z,1.15
2023-01-05T20:41:40.611Z,1.30
2023-01-05T20:46:45.997Z,1.48
2023-01-05T20:51:48.771Z,1.02
2023-01-05T20:56:50.995Z,1.10
2023-01-05T21:01:53.656Z,1.00
2023-01-05T21:06:59.375Z,1.30
2023-01-05T21:12:02.217Z,1.30
2023-01-05T21:17:04.287Z,0.98
2023-01-05T21:22:06.344Z,1.20
2023-01-05T21:27:08.429Z,0.95
2023-01-05T21:32:10.602Z,1.00
2023-01-05T21:37:12.792Z,1.15
2023-01-05T21:42:50.012Z,1.10
2023-01-05T21:47:53.994Z,1.10
2023-01-05T21:53:14.704Z,1.02
2023-01-05T21:58:16.755Z,1.20
2023-01-05T22:03:18.851Z,1.35
2023-01-05T22:08:23.315Z,1.15
2023-01-05T22:13:25.955Z,1.30
2023-01-05T22:18:28.161Z,1.20
2023-01-05T22:23:31.768Z,0.82
2023-01-05T22:28:38.116Z,1.20
2023-01-05T22:33:44.427Z,1.55
2023-01-05T22:38:48.034Z,1.13
2023-01-05T22:43:50.948Z,1.33
2023-01-05T22:48:54.497Z,1.83
2023-01-05T22:53:57.444Z,1.38
2023-01-05T22:59:00.584Z,1.33
2023-01-05T23:04:05.500Z,1.33
2023-01-05T23:09:09.720Z,1.10
2023-01-05T23:14:12.503Z,1.08
2023-01-05T23:19:16.812Z,1.23
2023-01-05T23:24:19.328Z,1.40
2023-01-05T23:29:21.485Z,1.42
2023-01-05T23:34:23.525Z,1.35
2023-01-05T23:39:25.731Z,1.30
2023-01-05T23:44:27.839Z,1.30
2023-01-05T23:49:29.836Z,1.27
2023-01-05T23:54:31.859Z,1.15
2023-01-05T23:59:33.877Z,1.45
